Station: PLZEN LINE, ICAO: LKLN, Synop: ,
Koordinaten: 49 41 N 013 16 E, Hoehe: 362m, Entfernung: 57.64km
2018/04/24 14:00
LKLN 241400Z AUTO 28007KT 180V340 9999 FEW057 20/07 Q1016


Station: GAERMERSDORF, ICAO: EDZH, Synop: ,
Koordinaten: 49 25 N 011 54 E, Hoehe: 419m, Entfernung: 59.63km


Station: Kuemmersruck, ICAO: ETGK, Synop: Synop: 10771,
Koordinaten: 4926'00''N 01154'00''E, Hoehe: 419m, Entfernung: 60.00km


Station: Hohenfels, ICAO: ETIH, Synop: Synop: 10775,
Koordinaten: 4913'00''N 01150'00''E, Hoehe: 442m, Entfernung: 64.33km
2018/04/24 13:57
ETIH 241357Z AUTO 26010KT 9999 FEW050 20/08 A3005 RMK AO2 SLP168 T01950079 $


Station: HOHENFELS (USAF), ICAO: EDIH, Synop: Synop: 10775,
Koordinaten: 49 13 N 011 49 E, Hoehe: 442m, Entfernung: 65.53km


Station: Grafenwoehr, ICAO: ETIC, Synop: Synop: 10687,
Koordinaten: 4942'00''N 01157'00''E, Hoehe: 415m, Entfernung: 69.63km
2018/04/24 13:56
ETIC 241356Z AUTO 27007KT 9999 SCT050 19/07 A3002 RMK AO2 SLP163 T01870068 $


mehr Wetter
WetterInfo - adds.pl 2.6.003 DL3EL © 2004-2017 [376451]